sensor_id;sensor_type;location;lat;lon;timestamp;pressure;altitude;pressure_sealevel;temperature;humidity
12799;BME280;19250;42.646;26.980;2023-05-14T00:00:41;99713.69;;;13.05;58.41
12799;BME280;19250;42.646;26.980;2023-05-14T00:03:10;99715.13;;;13.18;58.21
12799;BME280;19250;42.646;26.980;2023-05-14T00:05:37;99717.53;;;13.29;57.54
12799;BME280;19250;42.646;26.980;2023-05-14T00:08:05;99720.00;;;13.22;57.64
12799;BME280;19250;42.646;26.980;2023-05-14T00:10:32;99717.66;;;13.01;57.80
12799;BME280;19250;42.646;26.980;2023-05-14T00:12:59;99711.84;;;12.63;59.05
12799;BME280;19250;42.646;26.980;2023-05-14T00:15:26;99698.06;;;12.22;63.30
12799;BME280;19250;42.646;26.980;2023-05-14T00:17:54;99703.28;;;12.59;62.04
12799;BME280;19250;42.646;26.980;2023-05-14T00:20:22;99706.50;;;12.88;60.40
12799;BME280;19250;42.646;26.980;2023-05-14T00:22:49;99701.16;;;12.88;60.23
12799;BME280;19250;42.646;26.980;2023-05-14T00:25:17;99708.97;;;13.25;58.83
12799;BME280;19250;42.646;26.980;2023-05-14T00:27:44;99704.22;;;13.11;59.53
12799;BME280;19250;42.646;26.980;2023-05-14T00:30:11;99625.41;;;12.44;60.87
12799;BME280;19250;42.646;26.980;2023-05-14T00:32:38;99702.22;;;12.95;60.39
12799;BME280;19250;42.646;26.980;2023-05-14T00:35:06;99710.97;;;12.80;60.65
12799;BME280;19250;42.646;26.980;2023-05-14T00:37:35;99713.69;;;12.88;60.69
12799;BME280;19250;42.646;26.980;2023-05-14T00:40:02;99714.13;;;13.01;59.92
12799;BME280;19250;42.646;26.980;2023-05-14T00:42:31;99711.66;;;13.07;59.56
12799;BME280;19250;42.646;26.980;2023-05-14T00:44:58;99708.22;;;13.15;58.88
12799;BME280;19250;42.646;26.980;2023-05-14T00:47:26;99699.72;;;13.20;59.18
12799;BME280;19250;42.646;26.980;2023-05-14T00:49:53;99707.78;;;13.02;59.72
12799;BME280;19250;42.646;26.980;2023-05-14T00:52:20;99706.69;;;12.69;62.39
12799;BME280;19250;42.646;26.980;2023-05-14T00:54:49;99708.25;;;12.97;60.02
12799;BME280;19250;42.646;26.980;2023-05-14T00:57:18;99705.19;;;12.49;62.56
12799;BME280;19250;42.646;26.980;2023-05-14T00:59:46;99702.94;;;12.80;61.82
12799;BME280;19250;42.646;26.980;2023-05-14T01:02:13;99670.00;;;12.62;61.93
12799;BME280;19250;42.646;26.980;2023-05-14T01:04:40;99694.00;;;12.36;65.97
12799;BME280;19250;42.646;26.980;2023-05-14T01:07:14;99682.91;;;12.66;63.44
12799;BME280;19250;42.646;26.980;2023-05-14T01:09:46;99673.63;;;12.52;64.29
12799;BME280;19250;42.646;26.980;2023-05-14T01:12:20;99673.09;;;12.92;62.23
12799;BME280;19250;42.646;26.980;2023-05-14T01:14:54;99676.44;;;12.51;64.20
12799;BME280;19250;42.646;26.980;2023-05-14T01:17:23;99672.59;;;12.71;62.78
12799;BME280;19250;42.646;26.980;2023-05-14T01:19:52;99657.88;;;12.75;63.60
12799;BME280;19250;42.646;26.980;2023-05-14T01:22:22;99657.56;;;12.78;63.49
12799;BME280;19250;42.646;26.980;2023-05-14T01:24:48;99661.09;;;12.53;65.49
12799;BME280;19250;42.646;26.980;2023-05-14T01:27:16;99651.13;;;12.63;64.80
12799;BME280;19250;42.646;26.980;2023-05-14T01:29:45;99645.66;;;12.47;65.58
12799;BME280;19250;42.646;26.980;2023-05-14T01:32:15;99650.16;;;12.46;65.87
12799;BME280;19250;42.646;26.980;2023-05-14T01:34:43;99653.53;;;11.95;70.06
12799;BME280;19250;42.646;26.980;2023-05-14T01:37:13;99654.59;;;12.02;70.16
12799;BME280;19250;42.646;26.980;2023-05-14T01:39:41;99651.00;;;12.29;68.45
12799;BME280;19250;42.646;26.980;2023-05-14T01:42:08;99639.63;;;12.10;68.73
12799;BME280;19250;42.646;26.980;2023-05-14T01:44:36;99647.78;;;11.90;70.86
12799;BME280;19250;42.646;26.980;2023-05-14T01:47:03;99650.94;;;12.04;70.06
12799;BME280;19250;42.646;26.980;2023-05-14T01:49:29;99648.19;;;11.95;70.69
12799;BME280;19250;42.646;26.980;2023-05-14T01:51:56;99646.03;;;11.81;71.54
12799;BME280;19250;42.646;26.980;2023-05-14T01:54:23;99644.31;;;11.80;72.32
12799;BME280;19250;42.646;26.980;2023-05-14T01:56:52;99637.72;;;12.02;71.00
12799;BME280;19250;42.646;26.980;2023-05-14T01:59:18;99632.47;;;12.10;68.89
12799;BME280;19250;42.646;26.980;2023-05-14T02:01:45;99636.66;;;11.95;68.94
12799;BME280;19250;42.646;26.980;2023-05-14T02:04:12;99628.56;;;12.05;68.48
12799;BME280;19250;42.646;26.980;2023-05-14T02:06:39;99641.53;;;11.99;68.55
12799;BME280;19250;42.646;26.980;2023-05-14T02:09:06;99647.75;;;11.73;69.54
12799;BME280;19250;42.646;26.980;2023-05-14T02:11:33;99645.78;;;11.65;70.92
12799;BME280;19250;42.646;26.980;2023-05-14T02:14:01;99644.75;;;11.85;69.82
12799;BME280;19250;42.646;26.980;2023-05-14T02:16:28;99647.59;;;12.02;68.72
12799;BME280;19250;42.646;26.980;2023-05-14T02:18:55;99638.03;;;12.17;67.38
12799;BME280;19250;42.646;26.980;2023-05-14T02:21:22;99646.75;;;12.01;68.37
12799;BME280;19250;42.646;26.980;2023-05-14T02:23:49;99639.69;;;11.82;68.62
12799;BME280;19250;42.646;26.980;2023-05-14T02:26:15;99643.66;;;11.96;68.05
12799;BME280;19250;42.646;26.980;2023-05-14T02:28:42;99644.34;;;11.16;72.12
12799;BME280;19250;42.646;26.980;2023-05-14T02:31:11;99643.59;;;11.33;71.61
12799;BME280;19250;42.646;26.980;2023-05-14T02:33:38;99626.81;;;11.41;70.29
12799;BME280;19250;42.646;26.980;2023-05-14T02:36:05;99621.59;;;11.49;70.72
12799;BME280;19250;42.646;26.980;2023-05-14T02:38:32;99632.06;;;11.87;68.21
12799;BME280;19250;42.646;26.980;2023-05-14T02:40:59;99643.13;;;11.65;67.91
12799;BME280;19250;42.646;26.980;2023-05-14T02:43:26;99648.88;;;11.16;71.77
12799;BME280;19250;42.646;26.980;2023-05-14T02:45:53;99654.41;;;10.95;73.85
12799;BME280;19250;42.646;26.980;2023-05-14T02:48:21;99660.84;;;11.39;71.96
12799;BME280;19250;42.646;26.980;2023-05-14T02:50:48;99663.34;;;11.77;69.57
12799;BME280;19250;42.646;26.980;2023-05-14T02:53:15;99658.34;;;12.10;66.48
12799;BME280;19250;42.646;26.980;2023-05-14T02:55:42;99653.00;;;12.27;65.13
12799;BME280;19250;42.646;26.980;2023-05-14T02:58:09;99662.00;;;12.26;64.83
12799;BME280;19250;42.646;26.980;2023-05-14T03:00:35;99669.72;;;12.29;65.53
12799;BME280;19250;42.646;26.980;2023-05-14T03:03:02;99666.25;;;12.54;63.89
12799;BME280;19250;42.646;26.980;2023-05-14T03:05:31;99668.22;;;12.70;62.72
12799;BME280;19250;42.646;26.980;2023-05-14T03:07:57;99668.19;;;12.62;61.98
12799;BME280;19250;42.646;26.980;2023-05-14T03:10:24;99672.13;;;11.87;66.55
12799;BME280;19250;42.646;26.980;2023-05-14T03:12:51;99670.00;;;11.73;68.08
12799;BME280;19250;42.646;26.980;2023-05-14T03:15:18;99671.03;;;11.80;68.98
12799;BME280;19250;42.646;26.980;2023-05-14T03:17:45;99669.56;;;12.31;65.72
12799;BME280;19250;42.646;26.980;2023-05-14T03:20:12;99665.31;;;12.38;64.99
12799;BME280;19250;42.646;26.980;2023-05-14T03:22:40;99663.31;;;12.40;64.93
12799;BME280;19250;42.646;26.980;2023-05-14T03:25:07;99658.09;;;12.21;66.10
12799;BME280;19250;42.646;26.980;2023-05-14T03:27:34;99653.38;;;12.15;67.27
12799;BME280;19250;42.646;26.980;2023-05-14T03:30:01;99652.06;;;12.36;66.25
12799;BME280;19250;42.646;26.980;2023-05-14T03:32:28;99651.31;;;12.44;65.40
12799;BME280;19250;42.646;26.980;2023-05-14T03:34:55;99653.00;;;12.27;66.57
12799;BME280;19250;42.646;26.980;2023-05-14T03:37:22;99649.94;;;12.22;67.04
12799;BME280;19250;42.646;26.980;2023-05-14T03:39:50;99645.34;;;12.32;66.74
12799;BME280;19250;42.646;26.980;2023-05-14T03:42:17;99649.69;;;12.51;65.94
12799;BME280;19250;42.646;26.980;2023-05-14T03:44:44;99661.25;;;12.16;67.41
12799;BME280;19250;42.646;26.980;2023-05-14T03:47:11;99671.94;;;12.16;67.90
12799;BME280;19250;42.646;26.980;2023-05-14T03:49:37;99666.81;;;12.58;65.16
12799;BME280;19250;42.646;26.980;2023-05-14T03:52:04;99667.97;;;12.81;62.10
12799;BME280;19250;42.646;26.980;2023-05-14T03:54:31;99663.69;;;12.88;61.20
12799;BME280;19250;42.646;26.980;2023-05-14T03:56:59;99663.91;;;12.95;60.76
12799;BME280;19250;42.646;26.980;2023-05-14T03:59:27;99673.91;;;13.11;59.58
12799;BME280;19250;42.646;26.980;2023-05-14T04:01:54;99678.81;;;12.97;60.94
12799;BME280;19250;42.646;26.980;2023-05-14T04:04:21;99687.22;;;13.02;61.03
12799;BME280;19250;42.646;26.980;2023-05-14T04:06:47;99684.97;;;12.72;62.84
12799;BME280;19250;42.646;26.980;2023-05-14T04:09:14;99685.75;;;12.90;62.45
12799;BME280;19250;42.646;26.980;2023-05-14T04:11:41;99681.34;;;12.99;62.62
12799;BME280;19250;42.646;26.980;2023-05-14T04:14:09;99672.22;;;13.43;60.03
12799;BME280;19250;42.646;26.980;2023-05-14T04:16:37;99667.19;;;13.82;56.96
12799;BME280;19250;42.646;26.980;2023-05-14T04:19:04;99678.34;;;13.61;57.61
12799;BME280;19250;42.646;26.980;2023-05-14T04:21:30;99685.28;;;13.88;57.25
12799;BME280;19250;42.646;26.980;2023-05-14T04:23:57;99689.78;;;14.30;55.61
12799;BME280;19250;42.646;26.980;2023-05-14T04:26:24;99675.56;;;14.45;55.35
12799;BME280;19250;42.646;26.980;2023-05-14T04:28:51;99685.13;;;14.40;55.55
12799;BME280;19250;42.646;26.980;2023-05-14T04:31:19;99677.75;;;14.58;54.82
12799;BME280;19250;42.646;26.980;2023-05-14T04:33:46;99683.78;;;14.84;53.31
12799;BME280;19250;42.646;26.980;2023-05-14T04:36:13;99687.16;;;14.54;53.83
12799;BME280;19250;42.646;26.980;2023-05-14T04:38:40;99685.78;;;14.34;54.71
12799;BME280;19250;42.646;26.980;2023-05-14T04:41:07;99678.41;;;14.84;53.01
12799;BME280;19250;42.646;26.980;2023-05-14T04:43:33;99682.75;;;14.93;52.02
12799;BME280;19250;42.646;26.980;2023-05-14T04:46:00;99683.41;;;15.11;51.48
12799;BME280;19250;42.646;26.980;2023-05-14T04:48:29;99687.81;;;15.04;51.68
12799;BME280;19250;42.646;26.980;2023-05-14T04:50:56;99697.50;;;15.21;51.51
12799;BME280;19250;42.646;26.980;2023-05-14T04:53:22;99705.34;;;15.55;51.11
12799;BME280;19250;42.646;26.980;2023-05-14T04:55:49;99691.31;;;15.76;50.36
12799;BME280;19250;42.646;26.980;2023-05-14T04:58:16;99685.88;;;15.92;50.63
12799;BME280;19250;42.646;26.980;2023-05-14T05:00:43;99687.19;;;15.57;52.21
12799;BME280;19250;42.646;26.980;2023-05-14T05:03:10;99681.31;;;15.54;52.23
12799;BME280;19250;42.646;26.980;2023-05-14T05:05:38;99686.94;;;15.75;50.26
12799;BME280;19250;42.646;26.980;2023-05-14T05:08:05;99683.44;;;15.74;50.67
12799;BME280;19250;42.646;26.980;2023-05-14T05:10:32;99683.53;;;15.89;50.82
12799;BME280;19250;42.646;26.980;2023-05-14T05:12:59;99696.88;;;15.66;51.08
12799;BME280;19250;42.646;26.980;2023-05-14T05:15:26;99703.84;;;15.53;50.90
12799;BME280;19250;42.646;26.980;2023-05-14T05:17:53;99703.34;;;15.88;50.92
12799;BME280;19250;42.646;26.980;2023-05-14T05:20:20;99701.22;;;16.68;49.13
12799;BME280;19250;42.646;26.980;2023-05-14T05:22:48;99708.31;;;16.61;47.50
12799;BME280;19250;42.646;26.980;2023-05-14T05:25:16;99705.78;;;16.37;49.11
12799;BME280;19250;42.646;26.980;2023-05-14T05:27:42;99704.78;;;16.07;50.37
12799;BME280;19250;42.646;26.980;2023-05-14T05:30:10;99698.47;;;16.22;49.74
12799;BME280;19250;42.646;26.980;2023-05-14T05:32:37;99690.63;;;16.66;48.62
12799;BME280;19250;42.646;26.980;2023-05-14T05:35:04;99694.78;;;16.46;49.12
12799;BME280;19250;42.646;26.980;2023-05-14T05:37:31;99691.94;;;17.08;47.71
12799;BME280;19250;42.646;26.980;2023-05-14T05:39:59;99693.72;;;17.15;47.01
12799;BME280;19250;42.646;26.980;2023-05-14T05:42:26;99692.56;;;16.95;47.88
12799;BME280;19250;42.646;26.980;2023-05-14T05:44:53;99695.84;;;17.05;47.99
12799;BME280;19250;42.646;26.980;2023-05-14T05:47:20;99688.69;;;17.12;47.90
12799;BME280;19250;42.646;26.980;2023-05-14T05:49:47;99687.22;;;17.83;46.71
12799;BME280;19250;42.646;26.980;2023-05-14T05:52:14;99687.06;;;18.41;45.23
12799;BME280;19250;42.646;26.980;2023-05-14T05:54:41;99693.22;;;18.50;44.33
12799;BME280;19250;42.646;26.980;2023-05-14T05:57:10;99688.22;;;18.32;45.29
12799;BME280;19250;42.646;26.980;2023-05-14T05:59:36;99682.09;;;18.60;44.02
12799;BME280;19250;42.646;26.980;2023-05-14T06:02:03;99688.44;;;18.31;43.38
12799;BME280;19250;42.646;26.980;2023-05-14T06:04:30;99691.00;;;18.39;42.67
12799;BME280;19250;42.646;26.980;2023-05-14T06:06:58;99697.63;;;18.36;42.58
12799;BME280;19250;42.646;26.980;2023-05-14T06:09:24;99692.13;;;18.87;41.45
12799;BME280;19250;42.646;26.980;2023-05-14T06:11:51;99695.44;;;19.10;40.24
12799;BME280;19250;42.646;26.980;2023-05-14T06:14:19;99688.94;;;18.41;37.63
12799;BME280;19250;42.646;26.980;2023-05-14T06:16:46;99689.25;;;18.67;37.94
12799;BME280;19250;42.646;26.980;2023-05-14T06:19:14;99690.16;;;18.38;35.44
12799;BME280;19250;42.646;26.980;2023-05-14T06:21:40;99687.97;;;18.27;35.70
12799;BME280;19250;42.646;26.980;2023-05-14T06:24:07;99699.03;;;18.32;35.81
12799;BME280;19250;42.646;26.980;2023-05-14T06:26:34;99707.72;;;18.64;35.83
12799;BME280;19250;42.646;26.980;2023-05-14T06:29:01;99705.06;;;18.70;35.67
12799;BME280;19250;42.646;26.980;2023-05-14T06:31:29;99719.34;;;18.85;35.42
12799;BME280;19250;42.646;26.980;2023-05-14T06:33:56;99725.00;;;18.69;35.38
12799;BME280;19250;42.646;26.980;2023-05-14T06:36:23;99734.28;;;18.45;36.30
12799;BME280;19250;42.646;26.980;2023-05-14T06:38:50;99746.28;;;19.00;35.63
12799;BME280;19250;42.646;26.980;2023-05-14T06:41:17;99752.72;;;19.41;35.64
12799;BME280;19250;42.646;26.980;2023-05-14T06:43:45;99763.16;;;19.51;35.13
12799;BME280;19250;42.646;26.980;2023-05-14T06:46:12;99757.09;;;18.58;37.55
12799;BME280;19250;42.646;26.980;2023-05-14T06:48:40;99757.97;;;18.43;36.79
12799;BME280;19250;42.646;26.980;2023-05-14T06:51:07;99751.84;;;18.71;37.96
12799;BME280;19250;42.646;26.980;2023-05-14T06:53:35;99761.69;;;18.78;36.59
12799;BME280;19250;42.646;26.980;2023-05-14T06:56:02;99754.78;;;18.97;37.01
12799;BME280;19250;42.646;26.980;2023-05-14T06:58:29;99747.66;;;19.11;39.10
12799;BME280;19250;42.646;26.980;2023-05-14T07:00:55;99743.16;;;19.45;37.86
12799;BME280;19250;42.646;26.980;2023-05-14T07:03:22;99744.75;;;18.91;37.00
12799;BME280;19250;42.646;26.980;2023-05-14T07:05:50;99750.00;;;18.71;36.32
12799;BME280;19250;42.646;26.980;2023-05-14T07:08:17;99745.34;;;19.08;36.28
12799;BME280;19250;42.646;26.980;2023-05-14T07:10:44;99742.50;;;18.73;36.21
12799;BME280;19250;42.646;26.980;2023-05-14T07:13:11;99749.75;;;18.16;38.58
12799;BME280;19250;42.646;26.980;2023-05-14T07:15:38;99740.75;;;18.66;37.42
12799;BME280;19250;42.646;26.980;2023-05-14T07:18:05;99735.25;;;18.74;36.35
12799;BME280;19250;42.646;26.980;2023-05-14T07:20:31;99730.34;;;18.63;37.82
12799;BME280;19250;42.646;26.980;2023-05-14T07:23:00;99735.56;;;19.34;37.00
12799;BME280;19250;42.646;26.980;2023-05-14T07:25:27;99747.53;;;19.46;35.71
12799;BME280;19250;42.646;26.980;2023-05-14T07:27:53;99750.56;;;19.99;34.86
12799;BME280;19250;42.646;26.980;2023-05-14T07:30:20;99741.22;;;19.67;35.31
12799;BME280;19250;42.646;26.980;2023-05-14T07:32:47;99742.34;;;19.24;35.68
12799;BME280;19250;42.646;26.980;2023-05-14T07:35:14;99743.38;;;19.23;35.72
12799;BME280;19250;42.646;26.980;2023-05-14T07:37:41;99738.13;;;19.42;35.52
12799;BME280;19250;42.646;26.980;2023-05-14T07:40:10;99738.00;;;19.50;35.84
12799;BME280;19250;42.646;26.980;2023-05-14T07:42:37;99733.81;;;19.82;36.25
12799;BME280;19250;42.646;26.980;2023-05-14T07:45:04;99731.56;;;19.30;37.02
12799;BME280;19250;42.646;26.980;2023-05-14T07:47:31;99745.53;;;18.85;38.31
12799;BME280;19250;42.646;26.980;2023-05-14T07:49:58;99746.69;;;18.76;37.48
12799;BME280;19250;42.646;26.980;2023-05-14T07:52:25;99756.28;;;18.42;39.01
12799;BME280;19250;42.646;26.980;2023-05-14T07:54:52;99765.09;;;18.87;38.59
12799;BME280;19250;42.646;26.980;2023-05-14T07:57:20;99764.09;;;19.37;38.02
12799;BME280;19250;42.646;26.980;2023-05-14T07:59:47;99757.66;;;19.38;38.71
12799;BME280;19250;42.646;26.980;2023-05-14T08:02:14;99760.63;;;19.22;39.41
12799;BME280;19250;42.646;26.980;2023-05-14T08:04:41;99766.63;;;19.17;38.35
12799;BME280;19250;42.646;26.980;2023-05-14T08:07:08;99772.44;;;19.14;38.56
12799;BME280;19250;42.646;26.980;2023-05-14T08:09:35;99762.97;;;19.03;39.20
12799;BME280;19250;42.646;26.980;2023-05-14T08:12:02;99757.97;;;18.43;40.44
12799;BME280;19250;42.646;26.980;2023-05-14T08:14:30;99754.59;;;18.41;41.33
12799;BME280;19250;42.646;26.980;2023-05-14T08:16:57;99744.63;;;18.78;38.92
12799;BME280;19250;42.646;26.980;2023-05-14T08:19:24;99751.91;;;18.98;39.10
12799;BME280;19250;42.646;26.980;2023-05-14T08:21:52;99750.78;;;18.93;39.85
12799;BME280;19250;42.646;26.980;2023-05-14T08:24:19;99748.09;;;18.72;41.00
12799;BME280;19250;42.646;26.980;2023-05-14T08:26:45;99748.22;;;18.64;41.22
12799;BME280;19250;42.646;26.980;2023-05-14T08:29:12;99756.66;;;18.96;39.21
12799;BME280;19250;42.646;26.980;2023-05-14T08:31:40;99758.72;;;18.73;41.51
12799;BME280;19250;42.646;26.980;2023-05-14T08:34:07;99754.78;;;18.55;42.42
12799;BME280;19250;42.646;26.980;2023-05-14T08:36:34;99759.13;;;18.91;40.90
12799;BME280;19250;42.646;26.980;2023-05-14T08:39:01;99752.41;;;19.09;40.51
12799;BME280;19250;42.646;26.980;2023-05-14T08:41:28;99745.75;;;19.11;41.41
12799;BME280;19250;42.646;26.980;2023-05-14T08:43:56;99736.53;;;19.27;41.84
12799;BME280;19250;42.646;26.980;2023-05-14T08:46:28;99728.78;;;18.96;42.10
12799;BME280;19250;42.646;26.980;2023-05-14T08:48:59;99744.75;;;18.70;44.09
12799;BME280;19250;42.646;26.980;2023-05-14T08:51:27;99739.22;;;19.20;43.22
12799;BME280;19250;42.646;26.980;2023-05-14T08:53:54;99734.53;;;19.08;43.49
12799;BME280;19250;42.646;26.980;2023-05-14T08:56:24;99734.03;;;18.55;45.33
12799;BME280;19250;42.646;26.980;2023-05-14T08:58:52;99734.59;;;18.72;43.90
12799;BME280;19250;42.646;26.980;2023-05-14T09:01:19;99736.72;;;18.76;41.64
12799;BME280;19250;42.646;26.980;2023-05-14T09:03:46;99735.34;;;18.66;38.75
12799;BME280;19250;42.646;26.980;2023-05-14T09:06:15;99726.84;;;18.90;38.95
12799;BME280;19250;42.646;26.980;2023-05-14T09:08:42;99736.66;;;18.70;39.18
12799;BME280;19250;42.646;26.980;2023-05-14T09:11:09;99728.38;;;18.71;39.30
12799;BME280;19250;42.646;26.980;2023-05-14T09:13:37;99722.97;;;18.71;38.24
12799;BME280;19250;42.646;26.980;2023-05-14T09:16:04;99736.06;;;18.53;37.29
12799;BME280;19250;42.646;26.980;2023-05-14T09:18:31;99743.22;;;18.61;38.76
12799;BME280;19250;42.646;26.980;2023-05-14T09:20:57;99745.34;;;19.08;36.93
12799;BME280;19250;42.646;26.980;2023-05-14T09:23:26;99749.63;;;19.44;35.51
12799;BME280;19250;42.646;26.980;2023-05-14T09:25:56;99752.72;;;19.20;35.70
12799;BME280;19250;42.646;26.980;2023-05-14T09:28:23;99753.53;;;19.21;36.97
12799;BME280;19250;42.646;26.980;2023-05-14T09:30:52;99760.91;;;18.84;34.68
12799;BME280;19250;42.646;26.980;2023-05-14T09:33:26;99750.25;;;19.25;35.09
12799;BME280;19250;42.646;26.980;2023-05-14T09:35:57;99762.88;;;19.18;35.94
12799;BME280;19250;42.646;26.980;2023-05-14T09:38:28;99764.66;;;19.05;36.29
12799;BME280;19250;42.646;26.980;2023-05-14T09:40:56;99773.16;;;19.01;35.49
12799;BME280;19250;42.646;26.980;2023-05-14T09:43:23;99772.06;;;19.17;36.13
12799;BME280;19250;42.646;26.980;2023-05-14T09:45:50;99768.53;;;18.95;34.98
12799;BME280;19250;42.646;26.980;2023-05-14T09:48:17;99768.81;;;19.28;34.84
12799;BME280;19250;42.646;26.980;2023-05-14T09:50:44;99761.25;;;19.24;34.76
12799;BME280;19250;42.646;26.980;2023-05-14T09:53:12;99757.50;;;19.74;35.19
12799;BME280;19250;42.646;26.980;2023-05-14T09:55:40;99767.72;;;19.23;35.89
12799;BME280;19250;42.646;26.980;2023-05-14T09:58:07;99761.47;;;19.43;35.61
12799;BME280;19250;42.646;26.980;2023-05-14T10:00:34;99760.47;;;19.30;35.35
12799;BME280;19250;42.646;26.980;2023-05-14T10:03:03;99765.81;;;19.17;35.29
12799;BME280;19250;42.646;26.980;2023-05-14T10:05:30;99756.09;;;19.01;35.52
12799;BME280;19250;42.646;26.980;2023-05-14T10:07:58;99764.56;;;19.40;35.25
12799;BME280;19250;42.646;26.980;2023-05-14T10:10:26;99762.13;;;19.80;34.25
12799;BME280;19250;42.646;26.980;2023-05-14T10:12:56;99751.50;;;19.44;35.11
12799;BME280;19250;42.646;26.980;2023-05-14T10:15:25;99747.41;;;18.84;35.23
12799;BME280;19250;42.646;26.980;2023-05-14T10:17:57;99741.69;;;18.37;36.30
12799;BME280;19250;42.646;26.980;2023-05-14T10:20:27;99745.09;;;18.10;37.39
12799;BME280;19250;42.646;26.980;2023-05-14T10:22:55;99738.13;;;18.36;36.84
12799;BME280;19250;42.646;26.980;2023-05-14T10:25:22;99734.38;;;18.16;36.94
12799;BME280;19250;42.646;26.980;2023-05-14T10:27:50;99734.28;;;18.45;37.07
12799;BME280;19250;42.646;26.980;2023-05-14T10:30:20;99726.34;;;18.23;36.33
12799;BME280;19250;42.646;26.980;2023-05-14T10:32:48;99727.38;;;18.22;37.26
12799;BME280;19250;42.646;26.980;2023-05-14T10:35:16;99692.63;;;17.98;37.11
12799;BME280;19250;42.646;26.980;2023-05-14T10:37:45;99698.78;;;18.27;37.35
12799;BME280;19250;42.646;26.980;2023-05-14T10:40:13;99727.25;;;18.30;37.44
12799;BME280;19250;42.646;26.980;2023-05-14T10:42:41;99726.16;;;18.60;37.19
12799;BME280;19250;42.646;26.980;2023-05-14T10:45:11;99726.53;;;18.57;37.34
12799;BME280;19250;42.646;26.980;2023-05-14T10:47:41;99682.81;;;18.11;37.55
12799;BME280;19250;42.646;26.980;2023-05-14T10:50:10;99714.78;;;18.65;37.84
12799;BME280;19250;42.646;26.980;2023-05-14T10:52:39;99706.47;;;18.87;37.60
12799;BME280;19250;42.646;26.980;2023-05-14T10:55:07;99710.22;;;18.65;37.14
12799;BME280;19250;42.646;26.980;2023-05-14T10:57:37;99707.63;;;18.57;37.38
12799;BME280;19250;42.646;26.980;2023-05-14T11:00:05;99706.28;;;18.89;37.52
12799;BME280;19250;42.646;26.980;2023-05-14T11:02:33;99704.34;;;19.60;36.53
12799;BME280;19250;42.646;26.980;2023-05-14T11:05:03;99694.88;;;20.31;35.39
12799;BME280;19250;42.646;26.980;2023-05-14T11:07:31;99698.91;;;20.48;35.25
12799;BME280;19250;42.646;26.980;2023-05-14T11:10:03;99649.72;;;21.23;33.55
12799;BME280;19250;42.646;26.980;2023-05-14T11:12:31;99685.41;;;21.20;33.99
12799;BME280;19250;42.646;26.980;2023-05-14T11:14:59;99675.34;;;21.47;33.71
12799;BME280;19250;42.646;26.980;2023-05-14T11:17:28;99673.59;;;21.92;33.42
12799;BME280;19250;42.646;26.980;2023-05-14T11:19:56;99655.72;;;22.15;32.14
12799;BME280;19250;42.646;26.980;2023-05-14T11:22:25;99672.38;;;22.26;32.09
12799;BME280;19250;42.646;26.980;2023-05-14T11:24:52;99651.91;;;22.86;32.06
12799;BME280;19250;42.646;26.980;2023-05-14T11:27:20;99646.06;;;23.07;31.44
12799;BME280;19250;42.646;26.980;2023-05-14T11:29:49;99636.78;;;23.94;30.27
12799;BME280;19250;42.646;26.980;2023-05-14T11:32:16;99647.38;;;23.47;30.79
12799;BME280;19250;42.646;26.980;2023-05-14T11:34:43;99636.53;;;25.08;29.59
12799;BME280;19250;42.646;26.980;2023-05-14T11:37:12;99626.97;;;24.64;29.89
12799;BME280;19250;42.646;26.980;2023-05-14T11:39:46;99628.91;;;23.67;31.54
12799;BME280;19250;42.646;26.980;2023-05-14T11:42:14;99632.53;;;25.10;29.47
12799;BME280;19250;42.646;26.980;2023-05-14T11:44:44;99626.41;;;24.73;29.95
12799;BME280;19250;42.646;26.980;2023-05-14T11:47:11;99625.91;;;23.39;31.20
12799;BME280;19250;42.646;26.980;2023-05-14T11:49:39;99615.19;;;23.92;31.70
12799;BME280;19250;42.646;26.980;2023-05-14T11:52:07;99621.06;;;23.41;32.26
12799;BME280;19250;42.646;26.980;2023-05-14T11:54:35;99614.19;;;22.96;33.04
12799;BME280;19250;42.646;26.980;2023-05-14T11:57:07;99604.16;;;23.14;32.52
12799;BME280;19250;42.646;26.980;2023-05-14T11:59:34;99592.03;;;22.36;33.82
12799;BME280;19250;42.646;26.980;2023-05-14T12:02:01;99592.66;;;22.38;34.55
12799;BME280;19250;42.646;26.980;2023-05-14T12:04:29;99580.81;;;21.95;35.01
12799;BME280;19250;42.646;26.980;2023-05-14T12:06:57;99578.03;;;21.57;35.50
12799;BME280;19250;42.646;26.980;2023-05-14T12:09:24;99581.88;;;21.36;36.05
12799;BME280;19250;42.646;26.980;2023-05-14T12:11:51;99587.75;;;21.20;36.39
12799;BME280;19250;42.646;26.980;2023-05-14T12:14:20;99582.56;;;21.12;36.84
12799;BME280;19250;42.646;26.980;2023-05-14T12:16:47;99584.75;;;21.99;35.24
12799;BME280;19250;42.646;26.980;2023-05-14T12:19:15;99579.00;;;21.25;35.87
12799;BME280;19250;42.646;26.980;2023-05-14T12:21:42;99577.72;;;21.34;36.28
12799;BME280;19250;42.646;26.980;2023-05-14T12:24:09;99576.09;;;21.00;37.22
12799;BME280;19250;42.646;26.980;2023-05-14T12:26:37;99573.59;;;20.92;37.68
12799;BME280;19250;42.646;26.980;2023-05-14T12:29:04;99584.84;;;21.22;37.12
12799;BME280;19250;42.646;26.980;2023-05-14T12:31:34;99590.47;;;21.07;36.91
12799;BME280;19250;42.646;26.980;2023-05-14T12:34:01;99581.28;;;21.79;36.22
12799;BME280;19250;42.646;26.980;2023-05-14T12:36:29;99589.31;;;22.05;35.90
12799;BME280;19250;42.646;26.980;2023-05-14T12:38:57;99587.94;;;21.83;36.55
12799;BME280;19250;42.646;26.980;2023-05-14T12:41:24;99559.28;;;21.55;37.06
12799;BME280;19250;42.646;26.980;2023-05-14T12:43:51;99546.69;;;20.97;37.58
12799;BME280;19250;42.646;26.980;2023-05-14T12:46:18;99554.38;;;21.13;37.89
12799;BME280;19250;42.646;26.980;2023-05-14T12:48:46;99550.44;;;21.66;37.75
12799;BME280;19250;42.646;26.980;2023-05-14T12:51:13;99555.13;;;21.84;37.10